createdAt,value
2018-12-03T00:02:18.342Z,99.36
2018-12-03T00:06:27.812Z,98.90
2018-12-03T00:10:40.294Z,98.18
2018-12-03T00:14:51.215Z,98.14
2018-12-03T00:19:01.861Z,97.97
2018-12-03T00:23:12.337Z,97.79
2018-12-03T00:27:24.187Z,97.79
2018-12-03T00:31:40.679Z,97.54
2018-12-03T00:35:54.286Z,97.26
2018-12-03T00:40:11.933Z,97.28
2018-12-03T00:44:25.798Z,96.77
2018-12-03T00:48:45.108Z,96.89
2018-12-03T00:53:00.263Z,97.03
2018-12-03T00:57:18.564Z,97.24
2018-12-03T01:01:39.701Z,97.26
2018-12-03T01:05:55.249Z,97.53
2018-12-03T01:10:06.229Z,97.80
2018-12-03T01:14:19.107Z,98.20
2018-12-03T01:18:33.894Z,98.44
2018-12-03T01:22:48.336Z,98.12
2018-12-03T01:27:03.911Z,98.00
2018-12-03T01:31:20.497Z,97.39
2018-12-03T01:35:32.189Z,97.36
2018-12-03T01:39:45.862Z,97.02
2018-12-03T01:43:59.236Z,96.83
2018-12-03T01:48:12.124Z,97.02
2018-12-03T01:52:24.904Z,97.20
2018-12-03T01:56:34.381Z,97.25
2018-12-03T02:00:45.371Z,97.33
2018-12-03T02:04:56.181Z,97.33
2018-12-03T02:09:08.683Z,97.57
2018-12-03T02:13:21.289Z,97.48
2018-12-03T02:17:30.333Z,97.30
2018-12-03T02:21:37.475Z,97.35
2018-12-03T02:25:47.559Z,97.23
2018-12-03T02:29:58.415Z,97.05
2018-12-03T02:34:19.146Z,97.03
2018-12-03T02:38:35.492Z,96.89
2018-12-03T02:42:52.815Z,96.98
2018-12-03T02:47:08.141Z,96.72
2018-12-03T02:51:19.926Z,96.64
2018-12-03T02:55:29.170Z,96.57
2018-12-03T02:59:40.936Z,97.28
2018-12-03T03:03:51.836Z,97.49
2018-12-03T03:08:01.901Z,97.35
2018-12-03T03:12:15.749Z,97.72
2018-12-03T03:16:24.964Z,97.62
2018-12-03T03:20:38.779Z,97.59
2018-12-03T03:24:49.744Z,97.70
2018-12-03T03:29:02.246Z,97.55
2018-12-03T03:33:14.652Z,96.98
2018-12-03T03:37:30.658Z,96.77
2018-12-03T03:41:41.581Z,95.66
2018-12-03T03:45:50.776Z,95.50
2018-12-03T03:50:01.637Z,95.19
2018-12-03T03:54:11.850Z,94.53
2018-12-03T03:58:26.114Z,94.81
2018-12-03T04:02:38.696Z,94.65
2018-12-03T04:06:50.307Z,94.01
2018-12-03T04:11:01.477Z,94.14
2018-12-03T04:15:14.565Z,93.34
2018-12-03T04:19:29.322Z,93.11
2018-12-03T04:23:44.484Z,93.11
2018-12-03T04:27:57.022Z,93.08
2018-12-03T04:32:06.669Z,92.64
2018-12-03T04:36:16.529Z,92.88
2018-12-03T04:40:34.473Z,92.88
2018-12-03T04:44:43.558Z,91.99
2018-12-03T04:48:50.005Z,91.77
2018-12-03T04:53:02.700Z,92.25
2018-12-03T04:57:12.708Z,92.55
2018-12-03T05:01:24.009Z,92.15
2018-12-03T05:05:35.781Z,91.90
2018-12-03T05:09:47.492Z,91.83
2018-12-03T05:14:04.855Z,91.06
2018-12-03T05:18:16.055Z,90.70
2018-12-03T05:22:30.447Z,91.19
2018-12-03T05:26:44.996Z,91.00
2018-12-03T05:31:07.590Z,89.99
2018-12-03T05:35:27.228Z,89.77
2018-12-03T05:39:40.891Z,89.48
2018-12-03T05:43:54.376Z,90.57
2018-12-03T05:48:12.202Z,90.99
2018-12-03T05:52:31.588Z,91.17
2018-12-03T05:56:45.254Z,91.41
2018-12-03T06:00:56.220Z,90.47
2018-12-03T06:05:08.526Z,91.04
2018-12-03T06:09:23.849Z,91.05
2018-12-03T06:13:36.211Z,90.71
2018-12-03T06:17:46.057Z,90.43
2018-12-03T06:22:04.245Z,89.96
2018-12-03T06:26:18.977Z,90.43
2018-12-03T06:30:31.718Z,91.24
2018-12-03T06:34:42.536Z,90.85
2018-12-03T06:38:54.256Z,90.69
2018-12-03T06:43:10.631Z,90.49
2018-12-03T06:47:25.351Z,90.24
2018-12-03T06:51:50.512Z,89.83
2018-12-03T06:56:02.347Z,89.67
2018-12-03T07:00:24.901Z,89.88
2018-12-03T07:04:36.643Z,90.12
2018-12-03T07:08:52.815Z,90.33
2018-12-03T07:13:16.219Z,90.30
2018-12-03T07:17:25.480Z,90.49
2018-12-03T07:21:38.667Z,90.32
2018-12-03T07:25:46.336Z,90.58
2018-12-03T07:30:02.886Z,90.41
2018-12-03T07:34:17.325Z,90.35
2018-12-03T07:38:29.931Z,90.44
2018-12-03T07:42:43.498Z,90.52
2018-12-03T07:46:56.142Z,90.57
2018-12-03T07:51:09.603Z,90.49
2018-12-03T07:55:28.401Z,89.93
2018-12-03T07:59:47.340Z,89.61
2018-12-03T08:03:57.129Z,89.37
2018-12-03T08:08:09.705Z,89.06
2018-12-03T08:12:21.418Z,89.04
2018-12-03T08:16:32.179Z,88.95
2018-12-03T08:20:51.563Z,89.04
2018-12-03T08:25:04.746Z,88.84
2018-12-03T08:29:16.360Z,88.89
2018-12-03T08:33:30.727Z,88.89
2018-12-03T08:37:49.582Z,88.44
2018-12-03T08:42:06.722Z,88.42
2018-12-03T08:46:13.659Z,88.23
2018-12-03T08:50:29.352Z,88.60
2018-12-03T08:54:38.534Z,88.33
2018-12-03T08:58:51.447Z,88.37
2018-12-03T09:03:22.724Z,88.34
2018-12-03T09:07:38.761Z,88.06
2018-12-03T09:11:54.726Z,88.00
2018-12-03T09:16:06.615Z,87.58
2018-12-03T09:20:20.949Z,87.72
2018-12-03T09:24:32.841Z,87.42
2018-12-03T09:28:47.476Z,86.99
2018-12-03T09:33:00.962Z,86.79
2018-12-03T09:37:14.523Z,84.98
2018-12-03T09:41:27.113Z,83.19
2018-12-03T09:45:38.694Z,81.52
2018-12-03T09:49:52.133Z,80.83
2018-12-03T09:54:03.684Z,78.23
2018-12-03T09:58:44.075Z,75.70
2018-12-03T10:02:54.123Z,76.66
2018-12-03T10:07:10.439Z,74.22
2018-12-03T10:11:26.707Z,74.52
2018-12-03T10:15:42.086Z,71.64
2018-12-03T10:19:58.436Z,70.68
2018-12-03T10:24:16.046Z,69.41
2018-12-03T10:28:29.667Z,70.12
2018-12-03T10:32:39.431Z,70.26
2018-12-03T10:37:00.650Z,68.72
2018-12-03T10:41:33.896Z,71.21
2018-12-03T10:45:45.670Z,72.87
2018-12-03T10:50:00.114Z,73.71
2018-12-03T10:54:16.035Z,72.97
2018-12-03T10:58:32.426Z,72.98
2018-12-03T11:02:58.142Z,74.46
2018-12-03T11:07:05.505Z,75.85
2018-12-03T11:11:20.111Z,76.66
2018-12-03T11:15:27.371Z,78.41
2018-12-03T11:19:44.516Z,79.17
2018-12-03T11:23:55.787Z,80.06
2018-12-03T11:28:09.098Z,80.56
2018-12-03T11:32:23.836Z,81.00
2018-12-03T11:37:00.210Z,80.43
2018-12-03T11:41:14.977Z,79.93
2018-12-03T11:45:28.575Z,79.50
2018-12-03T11:49:42.886Z,79.66
2018-12-03T11:53:56.592Z,78.01
2018-12-03T11:58:03.534Z,79.07
2018-12-03T12:02:18.947Z,80.40
2018-12-03T12:06:33.925Z,80.93
2018-12-03T12:10:50.961Z,81.01
2018-12-03T12:14:59.959Z,84.44
2018-12-03T12:19:09.122Z,86.19
2018-12-03T12:23:25.283Z,87.35
2018-12-03T12:27:31.638Z,88.89
2018-12-03T12:31:44.745Z,90.08
2018-12-03T12:35:58.125Z,90.48
2018-12-03T12:40:15.060Z,90.70
2018-12-03T12:44:26.762Z,91.23
2018-12-03T12:48:41.319Z,91.42
2018-12-03T12:52:57.350Z,91.49
2018-12-03T12:57:08.093Z,91.72
2018-12-03T13:01:18.521Z,91.65
2018-12-03T13:05:29.204Z,91.85
2018-12-03T13:09:47.316Z,91.64
2018-12-03T13:14:00.974Z,92.05
2018-12-03T13:18:16.196Z,92.42
2018-12-03T13:22:31.403Z,92.36
2018-12-03T13:26:51.148Z,92.07
2018-12-03T13:31:02.051Z,91.60
2018-12-03T13:35:14.784Z,91.71
2018-12-03T13:39:33.751Z,91.36
2018-12-03T13:43:42.222Z,90.45
2018-12-03T13:47:57.745Z,89.00
2018-12-03T13:52:28.265Z,89.75
2018-12-03T13:56:39.107Z,90.33
2018-12-03T14:00:53.648Z,90.79
2018-12-03T14:05:06.471Z,91.02
2018-12-03T14:09:52.651Z,91.50
2018-12-03T14:14:42.410Z,91.75
2018-12-03T14:18:58.920Z,91.59
2018-12-03T14:23:11.927Z,91.18
2018-12-03T14:27:32.039Z,91.40
2018-12-03T14:31:42.928Z,91.10
2018-12-03T14:35:58.217Z,92.39
2018-12-03T14:40:05.383Z,93.33
2018-12-03T14:44:23.461Z,93.39
2018-12-03T14:48:41.220Z,93.61
2018-12-03T14:52:58.279Z,93.64
2018-12-03T14:57:09.838Z,93.58
2018-12-03T15:01:22.397Z,93.43
2018-12-03T15:05:39.811Z,93.45
2018-12-03T15:09:50.551Z,93.87
2018-12-03T15:14:03.051Z,93.60
2018-12-03T15:18:14.762Z,93.71
2018-12-03T15:22:28.580Z,93.47
2018-12-03T15:26:46.213Z,93.70
2018-12-03T15:30:58.063Z,93.71
2018-12-03T15:35:05.579Z,93.52
2018-12-03T15:39:23.032Z,93.25
2018-12-03T15:43:42.424Z,93.51
2018-12-03T15:47:55.545Z,93.24
2018-12-03T15:52:09.029Z,93.20
2018-12-03T15:56:27.908Z,92.95
2018-12-03T16:00:46.730Z,93.18
2018-12-03T16:05:04.819Z,93.06
2018-12-03T16:09:19.848Z,92.65
2018-12-03T16:13:28.333Z,92.44
2018-12-03T16:17:38.147Z,91.92
2018-12-03T16:21:50.130Z,92.28
2018-12-03T16:25:59.994Z,91.93
2018-12-03T16:30:27.943Z,91.78
2018-12-03T16:34:39.726Z,92.06
2018-12-03T16:38:55.210Z,91.26
2018-12-03T16:43:10.533Z,91.21
2018-12-03T16:47:24.067Z,91.06
2018-12-03T16:51:38.480Z,91.55
2018-12-03T16:55:52.776Z,91.35
2018-12-03T17:00:05.488Z,91.53
2018-12-03T17:04:17.292Z,91.63
2018-12-03T17:08:33.956Z,91.63
2018-12-03T17:12:41.096Z,91.42
2018-12-03T17:16:56.421Z,91.69
2018-12-03T17:21:44.332Z,91.08
2018-12-03T17:26:02.410Z,90.22
2018-12-03T17:30:16.044Z,90.44
2018-12-03T17:34:29.546Z,90.72
2018-12-03T17:38:45.734Z,90.92
2018-12-03T17:42:58.634Z,91.09
2018-12-03T17:47:12.167Z,91.17
2018-12-03T17:51:28.334Z,90.75
2018-12-03T17:55:45.690Z,90.66
2018-12-03T18:00:04.711Z,90.33
2018-12-03T18:04:19.824Z,89.23
2018-12-03T18:08:33.685Z,88.73
2018-12-03T18:12:43.850Z,88.16
2018-12-03T18:16:56.647Z,87.39
2018-12-03T18:21:06.629Z,87.57
2018-12-03T18:25:19.205Z,87.13
2018-12-03T18:29:33.899Z,87.18
2018-12-03T18:33:41.282Z,87.32
2018-12-03T18:37:52.999Z,87.34
2018-12-03T18:42:06.502Z,88.01
2018-12-03T18:46:23.689Z,88.27
2018-12-03T18:50:37.729Z,88.41
2018-12-03T18:54:48.721Z,88.74
2018-12-03T18:59:06.131Z,88.96
2018-12-03T19:03:19.784Z,90.54
2018-12-03T19:07:33.249Z,91.05
2018-12-03T19:11:43.974Z,91.69
2018-12-03T19:15:57.420Z,91.76
2018-12-03T19:20:08.169Z,91.57
2018-12-03T19:24:17.954Z,91.23
2018-12-03T19:28:31.751Z,91.31
2018-12-03T19:32:44.250Z,91.36
2018-12-03T19:37:17.940Z,90.79
2018-12-03T19:41:28.675Z,90.75
2018-12-03T19:45:47.523Z,91.18
2018-12-03T19:49:57.444Z,91.57
2018-12-03T19:54:09.385Z,91.43
2018-12-03T19:58:32.108Z,91.26
2018-12-03T20:02:46.467Z,91.02
2018-12-03T20:07:01.191Z,91.04
2018-12-03T20:11:16.721Z,91.49
2018-12-03T20:15:32.876Z,91.45
2018-12-03T20:19:43.875Z,92.06
2018-12-03T20:24:08.339Z,92.97
2018-12-03T20:28:24.825Z,93.36
2018-12-03T20:32:51.717Z,93.56
2018-12-03T20:37:24.431Z,92.10
2018-12-03T20:41:44.784Z,91.83
2018-12-03T20:46:20.333Z,91.96
2018-12-03T20:51:01.421Z,91.92
2018-12-03T20:55:34.029Z,91.55
2018-12-03T20:59:47.690Z,90.97
2018-12-03T21:04:11.490Z,91.11
2018-12-03T21:08:23.111Z,91.40
2018-12-03T21:12:33.098Z,90.39
2018-12-03T21:16:48.615Z,90.62
2018-12-03T21:21:02.978Z,90.98
2018-12-03T21:25:15.606Z,90.94
2018-12-03T21:29:24.542Z,90.17
2018-12-03T21:33:37.202Z,91.25
2018-12-03T21:37:53.571Z,89.59
2018-12-03T21:42:13.966Z,89.48
2018-12-03T21:46:26.601Z,90.52
2018-12-03T21:50:37.378Z,90.04
2018-12-03T21:54:50.007Z,90.81
2018-12-03T21:58:58.471Z,90.51
2018-12-03T22:03:05.843Z,89.93
2018-12-03T22:07:23.727Z,89.56
2018-12-03T22:11:33.596Z,88.01
2018-12-03T22:16:49.816Z,88.84
2018-12-03T22:21:04.436Z,86.90
2018-12-03T22:25:24.618Z,88.32
2018-12-03T22:29:41.514Z,88.25
2018-12-03T22:33:55.090Z,88.44
2018-12-03T22:38:05.129Z,88.63
2018-12-03T22:42:18.125Z,88.73
2018-12-03T22:46:29.742Z,88.94
2018-12-03T22:50:41.523Z,88.73
2018-12-03T22:54:53.745Z,88.68
2018-12-03T22:59:02.806Z,86.94
2018-12-03T23:03:13.441Z,88.18
2018-12-03T23:07:26.935Z,88.23
2018-12-03T23:11:42.866Z,88.28
2018-12-03T23:15:53.713Z,87.54
2018-12-03T23:20:11.536Z,87.12
2018-12-03T23:24:26.949Z,86.92
2018-12-03T23:28:35.364Z,86.25
2018-12-03T23:32:50.726Z,85.90
2018-12-03T23:37:03.236Z,86.21
2018-12-03T23:41:13.338Z,86.31
2018-12-03T23:45:27.587Z,86.65
2018-12-03T23:49:44.902Z,86.90
2018-12-03T23:53:59.757Z,87.14
2018-12-03T23:58:15.114Z,87.59
